createdAt,value
2019-06-27T00:01:22.327Z,99165.45
2019-06-27T00:03:53.024Z,99160.59
2019-06-27T00:06:23.741Z,99160.14
2019-06-27T00:08:54.447Z,99158.20
2019-06-27T00:11:25.177Z,99156.33
2019-06-27T00:13:56.019Z,99159.48
2019-06-27T00:16:26.757Z,99162.53
2019-06-27T00:18:57.601Z,99163.47
2019-06-27T00:21:28.331Z,99168.81
2019-06-27T00:23:59.111Z,99170.44
2019-06-27T00:26:29.918Z,99167.64
2019-06-27T00:29:00.643Z,99169.94
2019-06-27T00:31:31.627Z,99168.99
2019-06-27T00:34:02.383Z,99167.88
2019-06-27T00:36:33.140Z,99164.19
2019-06-27T00:39:04.990Z,99172.73
2019-06-27T00:41:36.069Z,99169.40
2019-06-27T00:44:06.837Z,99184.63
2019-06-27T00:46:39.990Z,99179.47
2019-06-27T00:49:10.744Z,99183.55
2019-06-27T00:51:45.038Z,99184.73
2019-06-27T00:54:13.990Z,99185.04
2019-06-27T00:56:44.728Z,99186.80
2019-06-27T00:59:15.408Z,99192.11
2019-06-27T01:01:46.216Z,99192.30
2019-06-27T01:04:17.049Z,99198.04
2019-06-27T01:06:48.948Z,99204.14
2019-06-27T01:09:20.109Z,99213.01
2019-06-27T01:11:50.850Z,99215.78
2019-06-27T01:14:21.552Z,99209.90
2019-06-27T01:16:52.278Z,99210.88
2019-06-27T01:19:22.993Z,99208.58
2019-06-27T01:21:53.868Z,99211.19
2019-06-27T01:24:24.591Z,99201.83
2019-06-27T01:26:55.383Z,99207.13
2019-06-27T01:29:26.133Z,99205.02
2019-06-27T01:31:56.845Z,99197.23
2019-06-27T01:34:27.607Z,99198.17
2019-06-27T01:36:58.347Z,99201.08
2019-06-27T01:39:29.328Z,99202.93
2019-06-27T01:42:00.213Z,99208.95
2019-06-27T01:44:56.977Z,99208.91
2019-06-27T01:47:27.753Z,99208.80
2019-06-27T01:49:58.485Z,99207.69
2019-06-27T01:52:29.598Z,99214.70
2019-06-27T01:55:00.315Z,99218.47
2019-06-27T01:57:45.650Z,99219.56
2019-06-27T02:00:03.905Z,99213.94
2019-06-27T02:02:34.685Z,99217.59
2019-06-27T02:05:05.921Z,99213.41
2019-06-27T02:07:36.646Z,99214.13
2019-06-27T02:10:08.393Z,99223.13
2019-06-27T02:12:39.174Z,99222.86
2019-06-27T02:15:10.144Z,99218.13
2019-06-27T02:17:41.161Z,99222.01
2019-06-27T02:20:12.380Z,99227.83
2019-06-27T02:22:43.107Z,99224.43
2019-06-27T02:25:14.164Z,99222.87
2019-06-27T02:27:44.965Z,99225.03
2019-06-27T02:30:17.599Z,99224.79
2019-06-27T02:32:48.309Z,99225.31
2019-06-27T02:35:19.141Z,99229.42
2019-06-27T02:37:49.854Z,99222.05
2019-06-27T02:40:22.041Z,99235.23
2019-06-27T02:42:53.361Z,99226.44
2019-06-27T02:45:25.327Z,99241.36
2019-06-27T02:47:56.382Z,99238.09
2019-06-27T02:50:27.466Z,99239.17
2019-06-27T02:52:58.196Z,99240.64
2019-06-27T02:55:29.177Z,99242.96
2019-06-27T02:58:00.331Z,99236.71
2019-06-27T03:00:31.191Z,99240.12
2019-06-27T03:03:02.076Z,99253.20
2019-06-27T03:05:32.813Z,99246.78
2019-06-27T03:08:03.785Z,99241.94
2019-06-27T03:10:34.637Z,99241.63
2019-06-27T03:13:05.353Z,99238.42
2019-06-27T03:15:36.245Z,99248.45
2019-06-27T03:18:06.978Z,99243.83
2019-06-27T03:20:37.713Z,99250.90
2019-06-27T03:23:08.444Z,99250.21
2019-06-27T03:25:39.197Z,99254.04
2019-06-27T03:28:10.094Z,99242.25
2019-06-27T03:30:41.449Z,99246.60
2019-06-27T03:33:12.359Z,99240.10
2019-06-27T03:35:43.112Z,99249.28
2019-06-27T03:38:15.022Z,99251.55
2019-06-27T03:40:46.041Z,99251.15
2019-06-27T03:43:16.900Z,99248.67
2019-06-27T03:45:48.705Z,99245.14
2019-06-27T03:48:19.469Z,99245.08
2019-06-27T03:50:50.163Z,99246.95
2019-06-27T03:53:20.919Z,99250.48
2019-06-27T03:55:51.624Z,99246.24
2019-06-27T03:58:22.515Z,99247.73
2019-06-27T04:00:53.396Z,99248.33
2019-06-27T04:03:24.404Z,99248.70
2019-06-27T04:05:55.220Z,99250.92
2019-06-27T04:08:25.959Z,99249.96
2019-06-27T04:10:57.066Z,99254.05
2019-06-27T04:13:27.804Z,99249.55
2019-06-27T04:15:58.513Z,99242.38
2019-06-27T04:18:29.668Z,99251.30
2019-06-27T04:21:00.387Z,99250.14
2019-06-27T04:23:31.125Z,99248.20
2019-06-27T04:26:02.060Z,99243.32
2019-06-27T04:28:32.809Z,99245.63
2019-06-27T04:31:03.590Z,99244.39
2019-06-27T04:33:34.333Z,99244.80
2019-06-27T04:36:05.041Z,99245.33
2019-06-27T04:38:36.059Z,99243.02
2019-06-27T04:41:06.935Z,99247.60
2019-06-27T04:43:37.665Z,99243.50
2019-06-27T04:46:08.697Z,99249.70
2019-06-27T04:48:39.749Z,99244.16
2019-06-27T04:51:10.438Z,99250.95
2019-06-27T04:53:41.183Z,99255.52
2019-06-27T04:56:11.902Z,99248.72
2019-06-27T04:58:42.699Z,99257.39
2019-06-27T05:01:13.759Z,99259.41
2019-06-27T05:03:44.568Z,99260.05
2019-06-27T05:06:15.293Z,99255.65
2019-06-27T05:08:46.431Z,99264.61
2019-06-27T05:11:17.350Z,99267.38
2019-06-27T05:13:48.182Z,99266.53
2019-06-27T05:16:18.869Z,99266.71
2019-06-27T05:18:49.755Z,99262.88
2019-06-27T05:21:20.453Z,99273.98
2019-06-27T05:23:51.424Z,99271.22
2019-06-27T05:26:22.419Z,99268.44
2019-06-27T05:28:54.182Z,99266.02
2019-06-27T05:31:24.946Z,99271.19
2019-06-27T05:33:55.905Z,99270.12
2019-06-27T05:36:26.643Z,99267.00
2019-06-27T05:38:57.452Z,99270.05
2019-06-27T05:41:28.288Z,99273.67
2019-06-27T05:43:59.008Z,99260.02
2019-06-27T05:46:30.059Z,99268.14
2019-06-27T05:49:00.809Z,99263.47
2019-06-27T05:51:31.511Z,99263.44
2019-06-27T05:54:02.475Z,99269.61
2019-06-27T05:56:33.176Z,99268.80
2019-06-27T05:59:03.937Z,99269.66
2019-06-27T06:01:34.999Z,99273.98
2019-06-27T06:04:06.013Z,99273.22
2019-06-27T06:06:36.752Z,99282.66
2019-06-27T06:09:07.622Z,99288.05
2019-06-27T06:11:38.474Z,99289.71
2019-06-27T06:14:09.184Z,99294.65
2019-06-27T06:16:39.990Z,99308.51
2019-06-27T06:19:10.789Z,99313.52
2019-06-27T06:21:41.522Z,99302.73
2019-06-27T06:24:12.207Z,99309.26
2019-06-27T06:26:42.928Z,99317.33
2019-06-27T06:29:13.841Z,99314.54
2019-06-27T06:31:44.612Z,99314.28
2019-06-27T06:34:15.451Z,99316.75
2019-06-27T06:36:46.349Z,99320.48
2019-06-27T06:39:17.059Z,99320.08
2019-06-27T06:41:47.895Z,99328.27
2019-06-27T06:44:18.584Z,99328.36
2019-06-27T06:46:49.333Z,99330.37
2019-06-27T06:49:20.546Z,99340.03
2019-06-27T06:51:51.415Z,99338.08
2019-06-27T06:54:22.101Z,99350.23
2019-06-27T06:56:53.027Z,99345.94
2019-06-27T06:59:24.723Z,99349.62
2019-06-27T07:01:55.476Z,99348.38
2019-06-27T07:04:26.209Z,99345.38
2019-06-27T07:06:56.980Z,99353.07
2019-06-27T07:09:27.850Z,99353.06
2019-06-27T07:11:58.680Z,99349.02
2019-06-27T07:14:29.434Z,99356.59
2019-06-27T07:17:00.258Z,99353.39
2019-06-27T07:19:30.968Z,99352.86
2019-06-27T07:22:01.772Z,99355.53
2019-06-27T07:24:32.490Z,99363.96
2019-06-27T07:27:03.308Z,99354.28
2019-06-27T07:29:34.238Z,99366.64
2019-06-27T07:32:04.994Z,99363.05
2019-06-27T07:34:35.798Z,99359.88
2019-06-27T07:37:06.572Z,99360.89
2019-06-27T07:39:37.468Z,99369.89
2019-06-27T07:42:08.218Z,99364.08
2019-06-27T07:44:38.938Z,99364.81
2019-06-27T07:47:09.722Z,99366.27
2019-06-27T07:49:40.833Z,99361.05
2019-06-27T07:52:11.837Z,99359.39
2019-06-27T07:54:42.605Z,99365.77
2019-06-27T07:57:13.438Z,99368.67
2019-06-27T07:59:44.340Z,99364.94
2019-06-27T08:02:16.358Z,99365.55
2019-06-27T08:04:47.369Z,99363.34
2019-06-27T08:07:21.193Z,99360.64
2019-06-27T08:09:51.135Z,99365.80
2019-06-27T08:12:21.866Z,99363.82
2019-06-27T08:14:52.580Z,99365.56
2019-06-27T08:17:23.708Z,99360.80
2019-06-27T08:19:55.006Z,99355.17
2019-06-27T08:22:26.011Z,99358.97
2019-06-27T08:24:56.751Z,99360.28
2019-06-27T08:27:28.591Z,99357.73
2019-06-27T08:29:59.635Z,99363.60
2019-06-27T08:32:30.887Z,99362.39
2019-06-27T08:35:01.872Z,99359.02
2019-06-27T08:37:32.645Z,99360.19
2019-06-27T08:40:03.472Z,99363.50
2019-06-27T08:42:34.529Z,99358.80
2019-06-27T08:45:06.768Z,99358.73
2019-06-27T08:47:37.948Z,99363.67
2019-06-27T08:50:09.360Z,99363.66
2019-06-27T08:52:40.123Z,99362.06
2019-06-27T08:55:11.265Z,99358.27
2019-06-27T08:57:41.940Z,99354.49
2019-06-27T09:00:13.175Z,99352.56
2019-06-27T09:02:43.837Z,99350.36
2019-06-27T09:05:14.998Z,99346.81
2019-06-27T09:07:45.695Z,99353.45
2019-06-27T09:10:16.903Z,99350.11
2019-06-27T09:12:47.632Z,99355.41
2019-06-27T09:15:19.591Z,99352.59
2019-06-27T09:17:50.338Z,99347.82
2019-06-27T09:20:21.920Z,99346.89
2019-06-27T09:22:52.632Z,99353.93
2019-06-27T09:25:23.481Z,99349.93
2019-06-27T09:27:54.418Z,99353.45
2019-06-27T09:30:25.660Z,99350.02
2019-06-27T09:32:56.419Z,99351.59
2019-06-27T09:35:27.228Z,99345.72
2019-06-27T09:37:57.995Z,99345.87
2019-06-27T09:40:28.746Z,99345.47
2019-06-27T09:42:59.553Z,99346.73
2019-06-27T09:45:30.287Z,99352.58
2019-06-27T09:48:01.018Z,99351.53
2019-06-27T09:50:31.716Z,99349.11
2019-06-27T09:53:03.623Z,99347.91
2019-06-27T09:55:34.549Z,99347.38
2019-06-27T09:58:05.338Z,99347.34
2019-06-27T10:00:36.086Z,99346.72
2019-06-27T10:03:07.064Z,99341.22
2019-06-27T10:05:37.844Z,99341.77
2019-06-27T10:08:08.593Z,99339.45
2019-06-27T10:10:39.476Z,99344.25
2019-06-27T10:13:10.201Z,99337.30
2019-06-27T10:15:40.941Z,99341.00
2019-06-27T10:18:11.673Z,99339.64
2019-06-27T10:20:42.447Z,99339.16
2019-06-27T10:23:13.516Z,99340.67
2019-06-27T10:25:44.233Z,99335.50
2019-06-27T10:28:14.970Z,99337.17
2019-06-27T10:30:49.139Z,99332.69
2019-06-27T10:33:18.499Z,99331.08
2019-06-27T10:35:49.355Z,99329.33
2019-06-27T10:38:20.079Z,99323.28
2019-06-27T10:40:50.783Z,99331.72
2019-06-27T10:43:21.650Z,99324.67
2019-06-27T10:45:52.430Z,99330.95
2019-06-27T10:48:23.288Z,99328.16
2019-06-27T10:50:54.868Z,99326.05
2019-06-27T10:53:26.712Z,99325.55
2019-06-27T10:55:57.786Z,99319.77
2019-06-27T10:58:28.523Z,99322.64
2019-06-27T11:00:59.211Z,99316.30
2019-06-27T11:03:30.210Z,99319.75
2019-06-27T11:06:00.912Z,99313.94
2019-06-27T11:08:31.669Z,99313.58
2019-06-27T11:11:02.426Z,99310.20
2019-06-27T11:13:33.191Z,99305.45
2019-06-27T11:16:04.029Z,99309.28
2019-06-27T11:18:34.748Z,99291.29
2019-06-27T11:21:05.603Z,99303.00
2019-06-27T11:23:36.302Z,99303.03
2019-06-27T11:26:09.407Z,99303.84
2019-06-27T11:28:39.510Z,99300.05
2019-06-27T11:31:10.358Z,99297.59
2019-06-27T11:33:41.561Z,99291.36
2019-06-27T11:36:12.560Z,99298.13
2019-06-27T11:38:43.272Z,99285.89
2019-06-27T11:41:14.063Z,99293.25
2019-06-27T11:43:44.808Z,99286.17
2019-06-27T11:46:15.723Z,99288.91
2019-06-27T11:48:46.468Z,99278.32
2019-06-27T11:51:17.148Z,99285.09
2019-06-27T11:53:47.867Z,99277.22
2019-06-27T11:56:18.594Z,99274.23
2019-06-27T11:58:49.293Z,99275.28
2019-06-27T12:01:20.150Z,99279.66
2019-06-27T12:03:50.873Z,99274.48
2019-06-27T12:06:21.728Z,99273.66
2019-06-27T12:08:52.469Z,99277.77
2019-06-27T12:11:23.164Z,99273.14
2019-06-27T12:13:54.843Z,99275.33
2019-06-27T12:16:25.560Z,99273.94
2019-06-27T12:18:56.299Z,99265.24
2019-06-27T12:21:27.024Z,99267.97
2019-06-27T12:23:58.143Z,99264.41
2019-06-27T12:26:28.914Z,99259.26
2019-06-27T12:28:59.615Z,99267.67
2019-06-27T12:31:30.454Z,99265.53
2019-06-27T12:34:06.877Z,99262.00
2019-06-27T12:36:33.802Z,99258.65
2019-06-27T12:39:04.548Z,99263.58
2019-06-27T12:41:36.431Z,99258.72
2019-06-27T12:44:07.410Z,99249.19
2019-06-27T12:46:38.153Z,99248.06
2019-06-27T12:49:08.880Z,99254.86
2019-06-27T12:51:39.813Z,99247.48
2019-06-27T12:54:10.537Z,99246.20
2019-06-27T12:56:41.378Z,99253.83
2019-06-27T12:59:12.060Z,99251.87
2019-06-27T13:01:42.777Z,99240.41
2019-06-27T13:04:23.480Z,99243.45
2019-06-27T13:06:46.284Z,99240.98
2019-06-27T13:09:17.165Z,99239.31
2019-06-27T13:11:47.871Z,99238.76
2019-06-27T13:14:18.589Z,99240.20
2019-06-27T13:16:49.435Z,99234.48
2019-06-27T13:19:20.101Z,99241.28
2019-06-27T13:21:51.033Z,99228.73
2019-06-27T13:24:21.735Z,99221.12
2019-06-27T13:26:52.455Z,99228.78
2019-06-27T13:29:26.737Z,99222.71
2019-06-27T13:31:55.766Z,99221.91
2019-06-27T13:34:39.985Z,99223.27
2019-06-27T13:36:59.103Z,99221.34
2019-06-27T13:39:29.788Z,99216.87
2019-06-27T13:42:00.533Z,99218.10
2019-06-27T13:44:31.551Z,99215.01
2019-06-27T13:47:02.278Z,99214.72
2019-06-27T13:49:32.975Z,99211.62
2019-06-27T13:52:03.797Z,99207.23
2019-06-27T13:54:34.531Z,99199.95
2019-06-27T13:57:05.699Z,99199.91
2019-06-27T13:59:37.465Z,99197.23
2019-06-27T14:02:08.112Z,99195.22
2019-06-27T14:04:39.042Z,99194.11
2019-06-27T14:07:09.811Z,99195.22
2019-06-27T14:09:52.224Z,99194.19
2019-06-27T14:12:12.903Z,99186.50
2019-06-27T14:14:58.790Z,99183.91
2019-06-27T14:17:16.109Z,99190.48
2019-06-27T14:19:50.679Z,99194.28
2019-06-27T14:22:32.746Z,99181.19
2019-06-27T14:24:52.279Z,99187.91
2019-06-27T14:27:23.052Z,99183.23
2019-06-27T14:29:56.583Z,99177.37
2019-06-27T14:32:26.802Z,99177.33
2019-06-27T14:35:14.034Z,99178.51
2019-06-27T14:37:30.113Z,99168.72
2019-06-27T14:40:00.821Z,99161.06
2019-06-27T14:42:31.561Z,99162.61
2019-06-27T14:45:02.423Z,99165.55
2019-06-27T14:47:33.125Z,99166.34
2019-06-27T14:50:04.381Z,99163.53
2019-06-27T14:52:35.275Z,99168.53
2019-06-27T14:55:07.229Z,99164.73
2019-06-27T14:57:38.072Z,99166.20
2019-06-27T15:00:09.015Z,99165.91
2019-06-27T15:02:39.853Z,99168.78
2019-06-27T15:05:10.572Z,99164.72
2019-06-27T15:07:41.277Z,99164.19
2019-06-27T15:10:12.709Z,99162.95
2019-06-27T15:12:56.342Z,99161.52
2019-06-27T15:15:17.335Z,99157.22
2019-06-27T15:17:48.041Z,99163.70
2019-06-27T15:20:19.060Z,99159.92
2019-06-27T15:22:49.762Z,99159.06
2019-06-27T15:25:20.550Z,99156.37
2019-06-27T15:27:51.769Z,99157.20
2019-06-27T15:30:22.598Z,99153.20
2019-06-27T15:32:54.286Z,99153.16
2019-06-27T15:35:25.099Z,99157.28
2019-06-27T15:37:55.849Z,99152.95
2019-06-27T15:40:26.591Z,99151.61
2019-06-27T15:42:57.785Z,99159.47
2019-06-27T15:45:28.673Z,99151.30
2019-06-27T15:47:59.369Z,99144.23
2019-06-27T15:50:30.196Z,99146.70
2019-06-27T15:53:00.921Z,99142.89
2019-06-27T15:55:31.628Z,99142.62
2019-06-27T15:58:02.834Z,99146.70
2019-06-27T16:00:39.159Z,99145.35
2019-06-27T16:03:08.445Z,99143.98
2019-06-27T16:05:39.257Z,99145.34
2019-06-27T16:08:10.188Z,99141.56
2019-06-27T16:10:40.932Z,99145.06
2019-06-27T16:13:11.757Z,99130.89
2019-06-27T16:15:42.436Z,99136.31
2019-06-27T16:18:13.274Z,99136.86
2019-06-27T16:20:44.051Z,99130.06
2019-06-27T16:23:15.852Z,99135.52
2019-06-27T16:25:47.626Z,99130.05
2019-06-27T16:28:18.373Z,99128.42
2019-06-27T16:30:49.132Z,99132.97
2019-06-27T16:33:19.937Z,99133.31
2019-06-27T16:35:50.664Z,99127.35
2019-06-27T16:38:22.429Z,99129.80
2019-06-27T16:40:53.178Z,99130.35
2019-06-27T16:43:23.966Z,99132.70
2019-06-27T16:45:54.802Z,99124.77
2019-06-27T16:48:25.550Z,99124.23
2019-06-27T16:50:56.350Z,99123.52
2019-06-27T16:53:28.243Z,99127.97
2019-06-27T16:55:58.956Z,99124.26
2019-06-27T16:58:29.814Z,99132.03
2019-06-27T17:01:00.929Z,99133.72
2019-06-27T17:03:32.675Z,99130.30
2019-06-27T17:06:03.485Z,99135.45
2019-06-27T17:08:34.384Z,99139.31
2019-06-27T17:11:05.084Z,99136.81
2019-06-27T17:13:35.881Z,99136.30
2019-06-27T17:16:06.631Z,99137.52
2019-06-27T17:18:37.393Z,99135.44
2019-06-27T17:21:08.350Z,99142.72
2019-06-27T17:23:39.226Z,99144.30
2019-06-27T17:26:11.698Z,99147.44
2019-06-27T17:28:42.348Z,99148.65
2019-06-27T17:31:13.230Z,99145.85
2019-06-27T17:33:44.166Z,99150.78
2019-06-27T17:36:14.900Z,99158.69
2019-06-27T17:38:45.948Z,99159.48
2019-06-27T17:41:16.697Z,99153.76
2019-06-27T17:43:47.403Z,99159.72
2019-06-27T17:46:18.221Z,99162.03
2019-06-27T17:48:48.901Z,99156.44
2019-06-27T17:51:19.594Z,99160.09
2019-06-27T17:53:50.262Z,99161.27
2019-06-27T17:56:20.976Z,99166.91
2019-06-27T17:58:51.673Z,99165.52
2019-06-27T18:01:22.563Z,99162.72
2019-06-27T18:03:53.633Z,99166.02
2019-06-27T18:06:24.590Z,99160.75
2019-06-27T18:08:55.355Z,99156.01
2019-06-27T18:11:26.072Z,99168.15
2019-06-27T18:13:56.764Z,99162.66
2019-06-27T18:16:27.499Z,99167.70
2019-06-27T18:19:00.757Z,99167.80
2019-06-27T18:21:31.063Z,99171.50
2019-06-27T18:24:01.877Z,99168.08
2019-06-27T18:26:32.914Z,99171.45
2019-06-27T18:29:03.673Z,99175.38
2019-06-27T18:31:34.487Z,99173.78
2019-06-27T18:34:05.282Z,99172.71
2019-06-27T18:36:36.052Z,99171.13
2019-06-27T18:39:07.095Z,99176.52
2019-06-27T18:41:37.938Z,99173.94
2019-06-27T18:44:08.627Z,99171.95
2019-06-27T18:46:39.660Z,99175.27
2019-06-27T18:49:10.289Z,99174.31
2019-06-27T18:51:42.079Z,99172.53
2019-06-27T18:54:13.004Z,99174.27
2019-06-27T18:56:43.998Z,99179.33
2019-06-27T18:59:14.731Z,99186.74
2019-06-27T19:01:45.571Z,99187.23
2019-06-27T19:04:16.239Z,99186.59
2019-06-27T19:06:46.994Z,99185.55
2019-06-27T19:09:17.753Z,99188.36
2019-06-27T19:11:48.488Z,99186.75
2019-06-27T19:14:19.467Z,99191.56
2019-06-27T19:16:50.223Z,99199.58
2019-06-27T19:19:23.572Z,99191.55
2019-06-27T19:22:22.160Z,99189.17
2019-06-27T19:25:07.874Z,99199.08
2019-06-27T19:27:38.677Z,99204.30
2019-06-27T19:30:09.522Z,99202.78
2019-06-27T19:32:41.159Z,99206.98
2019-06-27T19:35:12.164Z,99210.91
2019-06-27T19:37:42.949Z,99210.96
2019-06-27T19:40:13.919Z,99216.45
2019-06-27T19:42:44.683Z,99219.03
2019-06-27T19:45:15.498Z,99221.41
2019-06-27T19:47:46.203Z,99225.55
2019-06-27T19:50:17.414Z,99228.56
2019-06-27T19:52:48.209Z,99233.63
2019-06-27T19:55:19.481Z,99233.83
2019-06-27T19:57:50.349Z,99236.37
2019-06-27T20:00:21.552Z,99232.52
2019-06-27T20:02:52.434Z,99235.81
2019-06-27T20:05:23.140Z,99237.08
2019-06-27T20:07:54.117Z,99244.13
2019-06-27T20:10:25.146Z,99247.83
2019-06-27T20:12:55.877Z,99245.72
2019-06-27T20:15:26.650Z,99255.89
2019-06-27T20:17:57.364Z,99252.62
2019-06-27T20:20:28.305Z,99257.20
2019-06-27T20:22:59.080Z,99256.11
2019-06-27T20:25:29.891Z,99259.14
2019-06-27T20:28:00.582Z,99257.98
2019-06-27T20:30:31.340Z,99266.98
2019-06-27T20:33:02.074Z,99266.44
2019-06-27T20:35:33.027Z,99267.59
2019-06-27T20:38:03.946Z,99268.20
2019-06-27T20:40:34.686Z,99266.33
2019-06-27T20:43:05.639Z,99275.05
2019-06-27T20:45:36.631Z,99267.13
2019-06-27T20:48:07.357Z,99269.83
2019-06-27T20:50:38.096Z,99273.89
2019-06-27T20:53:08.773Z,99272.65
2019-06-27T20:55:39.592Z,99277.81
2019-06-27T20:58:10.535Z,99280.75
2019-06-27T21:00:41.535Z,99281.20
2019-06-27T21:03:12.912Z,99279.86
2019-06-27T21:05:43.758Z,99286.41
2019-06-27T21:08:14.463Z,99288.68
2019-06-27T21:10:45.543Z,99285.98
2019-06-27T21:13:16.206Z,99287.13
2019-06-27T21:15:50.243Z,99294.22
2019-06-27T21:18:20.456Z,99294.30
2019-06-27T21:20:51.232Z,99293.16
2019-06-27T21:23:22.363Z,99291.34
2019-06-27T21:25:53.557Z,99291.59
2019-06-27T21:28:24.262Z,99294.05
2019-06-27T21:30:54.979Z,99295.41
2019-06-27T21:33:26.035Z,99297.98
2019-06-27T21:35:56.941Z,99304.48
2019-06-27T21:38:27.629Z,99300.98
2019-06-27T21:40:58.469Z,99312.24
2019-06-27T21:43:29.212Z,99309.56
2019-06-27T21:46:00.008Z,99302.91
2019-06-27T21:48:30.682Z,99302.91
2019-06-27T21:51:01.421Z,99315.77
2019-06-27T21:53:32.115Z,99313.70
2019-06-27T21:56:02.834Z,99308.89
2019-06-27T21:58:33.710Z,99313.33
2019-06-27T22:02:41.570Z,99424.98
2019-06-27T22:05:13.168Z,99312.77
2019-06-27T22:07:44.025Z,99320.75
2019-06-27T22:10:15.317Z,99317.53
2019-06-27T22:12:46.503Z,99313.45
2019-06-27T22:15:17.977Z,99315.63
2019-06-27T22:17:48.701Z,99315.63
2019-06-27T22:20:19.919Z,99314.48
2019-06-27T22:22:50.715Z,99315.73
2019-06-27T22:25:21.400Z,99308.31
2019-06-27T22:27:52.341Z,99312.14
2019-06-27T22:30:23.139Z,99297.43
2019-06-27T22:32:53.913Z,99314.67
2019-06-27T22:35:24.662Z,99314.67
2019-06-27T22:38:13.077Z,99314.16
2019-06-27T22:41:01.698Z,99300.06
2019-06-27T22:43:49.995Z,99302.93
2019-06-27T22:46:38.594Z,99302.93
2019-06-27T22:49:08.957Z,99305.31
2019-06-27T22:51:56.670Z,99304.55
2019-06-27T22:54:27.654Z,99306.53
2019-06-27T22:56:58.392Z,99306.53
2019-06-27T22:59:29.449Z,99300.56
2019-06-27T23:02:00.366Z,99315.60
2019-06-27T23:04:31.277Z,99306.76
2019-06-27T23:07:02.355Z,99309.61
2019-06-27T23:09:33.108Z,99307.60
2019-06-27T23:12:04.156Z,99307.42
2019-06-27T23:14:35.527Z,99307.42
2019-06-27T23:17:06.194Z,99310.17
2019-06-27T23:19:36.923Z,99309.87
2019-06-27T23:22:08.011Z,99312.44
2019-06-27T23:24:38.947Z,99312.44
2019-06-27T23:27:09.699Z,99305.82
2019-06-27T23:29:40.486Z,99314.92
2019-06-27T23:32:11.208Z,99312.50
2019-06-27T23:34:41.994Z,99308.16
2019-06-27T23:37:31.762Z,99307.78
2019-06-27T23:40:13.591Z,99307.78
2019-06-27T23:42:35.054Z,99312.23
2019-06-27T23:45:06.328Z,99316.60
2019-06-27T23:47:37.320Z,99315.92
2019-06-27T23:50:09.685Z,99306.92
2019-06-27T23:52:40.544Z,99313.59
2019-06-27T23:55:12.687Z,99307.68
2019-06-27T23:57:43.449Z,99306.09
